Time;durP1;ratioP1;P1;durP2;ratioP2;P2;SDS_P1;SDS_P2;PMS_P1;PMS_P2;Temp;Humidity;BMP_temperature;BMP_pressure;BME280_temperature;BME280_humidity;BME280_pressure;Samples;Min_cycle;Max_cycle;Signal;HPM_P1;HPM_P2
2023/09/16 00:02:02;;;;;;;18.93;12.47;;;21.10;96.70;;;;;;5081127;28;20211;-64
2023/09/16 00:04:29;;;;;;;19.00;14.27;;;21.10;96.70;;;;;;5078519;28;20289;-63
2023/09/16 00:06:56;;;;;;;15.70;13.80;;;21.00;96.80;;;;;;5079347;28;20643;-63
2023/09/16 00:09:24;;;;;;;20.40;16.10;;;21.00;97.00;;;;;;5082849;28;20218;-63
2023/09/16 00:11:51;;;;;;;20.50;15.00;;;20.90;97.10;;;;;;5082067;28;20654;-63
2023/09/16 00:14:21;;;;;;;17.63;14.43;;;20.90;97.20;;;;;;5072894;28;20201;-63
2023/09/16 00:16:50;;;;;;;18.43;14.73;;;20.90;97.20;;;;;;5072244;28;20579;-64
2023/09/16 00:19:17;;;;;;;20.03;14.10;;;20.90;97.30;;;;;;5080493;28;20205;-63
2023/09/16 00:21:45;;;;;;;22.63;15.67;;;20.90;97.30;;;;;;5073857;28;20212;-63
2023/09/16 00:24:14;;;;;;;19.47;15.77;;;20.90;97.30;;;;;;5082125;28;20543;-63
2023/09/16 00:26:41;;;;;;;16.93;14.27;;;20.90;97.40;;;;;;5077087;28;20311;-63
2023/09/16 00:29:08;;;;;;;19.60;15.50;;;20.90;97.40;;;;;;5084691;28;20292;-63
2023/09/16 00:31:36;;;;;;;21.77;16.33;;;20.90;97.40;;;;;;5082230;28;20251;-63
2023/09/16 00:34:04;;;;;;;21.13;16.70;;;20.90;97.40;;;;;;5080735;28;20225;-63
2023/09/16 00:36:31;;;;;;;18.97;15.80;;;20.90;97.50;;;;;;5064798;28;20284;-63
2023/09/16 00:38:58;;;;;;;24.67;19.30;;;20.90;97.50;;;;;;5059866;28;20251;-63
2023/09/16 00:41:26;;;;;;;19.93;17.77;;;20.80;97.50;;;;;;5079839;28;20201;-63
2023/09/16 00:43:53;;;;;;;25.87;17.53;;;20.80;97.60;;;;;;5077972;28;20218;-64
2023/09/16 00:46:20;;;;;;;20.23;16.57;;;20.80;97.60;;;;;;5063854;28;20206;-63
2023/09/16 00:48:48;;;;;;;24.50;17.57;;;20.80;97.70;;;;;;5079915;28;20220;-63
2023/09/16 00:51:15;;;;;;;20.03;17.00;;;20.80;97.70;;;;;;5083472;28;20190;-64
2023/09/16 00:53:45;;;;;;;22.63;17.27;;;20.80;97.70;;;;;;5063997;28;20232;-63
2023/09/16 00:56:13;;;;;;;19.03;16.20;;;20.80;97.70;;;;;;5077096;28;20630;-63
2023/09/16 00:58:41;;;;;;;19.10;16.37;;;20.80;97.70;;;;;;5064814;28;20226;-63
2023/09/16 01:01:16;;;;;;;21.13;17.03;;;20.80;97.70;;;;;;5079867;28;20267;-63
2023/09/16 01:03:44;;;;;;;23.50;17.37;;;20.80;97.70;;;;;;5071458;28;20201;-63
2023/09/16 01:06:16;;;;;;;21.70;16.57;;;20.80;97.70;;;;;;5079978;28;20198;-63
2023/09/16 01:08:44;;;;;;;20.93;17.13;;;20.80;97.70;;;;;;5076906;28;20271;-63
2023/09/16 01:11:12;;;;;;;20.07;17.03;;;20.70;97.60;;;;;;5062593;28;20241;-63
2023/09/16 01:13:39;;;;;;;22.97;18.53;;;20.70;97.60;;;;;;5079916;28;20308;-63
2023/09/16 01:16:19;;;;;;;21.33;17.70;;;20.70;97.60;;;;;;5078147;28;20207;-63
2023/09/16 01:18:55;;;;;;;21.97;17.70;;;20.70;97.60;;;;;;5086523;28;20202;-64
2023/09/16 01:21:23;;;;;;;20.20;17.93;;;20.60;97.60;;;;;;5078017;28;20204;-63
2023/09/16 01:24:20;;;;;;;16.97;14.37;;;20.60;97.60;;;;;;5075137;28;20262;-63
2023/09/16 01:26:48;;;;;;;15.30;13.80;;;20.60;97.50;;;;;;5069727;28;20618;-63
2023/09/16 01:29:16;;;;;;;22.67;18.13;;;20.60;97.50;;;;;;5077092;28;20209;-64
2023/09/16 01:31:45;;;;;;;20.40;18.00;;;20.50;97.40;;;;;;5077100;28;20235;-63
2023/09/16 01:34:52;;;;;;;24.20;17.43;;;20.50;97.50;;;;;;5077066;28;20202;-63
2023/09/16 01:37:23;;;;;;;17.20;14.47;;;20.50;97.60;;;;;;5113270;27;20697;-64
2023/09/16 01:39:56;;;;;;;16.00;12.93;;;20.40;97.70;;;;;;5069928;28;20195;-63
2023/09/16 01:42:29;;;;;;;17.23;11.83;;;20.40;97.90;;;;;;5057319;28;20279;-63
2023/09/16 01:44:56;;;;;;;15.83;12.27;;;20.30;98.00;;;;;;5076448;28;20213;-63
2023/09/16 01:47:23;;;;;;;13.83;12.07;;;20.30;98.00;;;;;;5103494;27;20641;-63
2023/09/16 01:49:51;;;;;;;10.80;9.50;;;20.30;98.00;;;;;;5079774;28;20254;-63
2023/09/16 01:52:18;;;;;;;11.33;9.40;;;20.30;98.10;;;;;;5076863;28;20217;-63
2023/09/16 01:54:45;;;;;;;15.67;11.53;;;20.20;98.10;;;;;;5079103;28;20221;-63
2023/09/16 01:57:12;;;;;;;12.33;10.63;;;20.20;98.00;;;;;;5061870;28;20647;-64
2023/09/16 01:59:39;;;;;;;15.60;11.77;;;20.20;97.90;;;;;;5077804;28;20204;-63
2023/09/16 02:02:08;;;;;;;16.97;13.67;;;20.20;97.90;;;;;;5081452;28;20534;-63
2023/09/16 02:04:36;;;;;;;15.83;12.63;;;20.20;97.80;;;;;;5077661;28;20214;-64
2023/09/16 02:07:05;;;;;;;15.83;13.53;;;20.20;97.80;;;;;;5060983;28;20286;-63
2023/09/16 02:09:32;;;;;;;15.63;14.10;;;20.20;97.80;;;;;;5074412;28;20205;-63
2023/09/16 02:12:00;;;;;;;22.13;16.23;;;20.20;97.80;;;;;;5085420;28;22461;-64
2023/09/16 02:14:27;;;;;;;20.13;16.60;;;20.10;97.90;;;;;;5106355;27;20680;-63
2023/09/16 02:16:54;;;;;;;19.57;14.90;;;20.20;98.10;;;;;;5077684;28;20207;-63
2023/09/16 02:19:23;;;;;;;22.10;15.53;;;20.20;98.20;;;;;;5080782;28;20209;-63
2023/09/16 02:21:50;;;;;;;23.87;16.63;;;20.20;98.30;;;;;;5075326;28;20208;-63
2023/09/16 02:24:17;;;;;;;21.17;15.33;;;20.20;98.30;;;;;;5073953;28;20622;-63
2023/09/16 02:26:44;;;;;;;20.00;14.53;;;20.20;98.50;;;;;;5078200;28;20192;-63
2023/09/16 02:29:11;;;;;;;21.60;15.87;;;20.20;98.50;;;;;;5088510;28;20193;-63
2023/09/16 02:31:39;;;;;;;16.90;14.47;;;20.20;98.50;;;;;;5072458;28;20237;-63
2023/09/16 02:34:06;;;;;;;17.90;13.07;;;20.20;98.50;;;;;;5077191;28;20251;-63
2023/09/16 02:36:34;;;;;;;17.77;13.07;;;20.10;98.50;;;;;;5075585;28;20220;-63
2023/09/16 02:39:01;;;;;;;14.80;12.63;;;20.10;98.40;;;;;;5052376;28;20226;-63
2023/09/16 02:41:30;;;;;;;16.27;13.53;;;20.10;98.30;;;;;;5079611;28;20249;-63
2023/09/16 02:43:58;;;;;;;16.30;14.17;;;20.10;98.30;;;;;;5098042;28;20665;-63
2023/09/16 02:46:25;;;;;;;18.03;14.77;;;20.10;98.30;;;;;;5096048;28;20246;-63
2023/09/16 02:48:52;;;;;;;20.13;14.43;;;20.00;98.50;;;;;;5078400;28;20540;-63
2023/09/16 02:51:20;;;;;;;18.83;14.00;;;20.00;98.20;;;;;;5070257;28;20227;-63
2023/09/16 02:53:47;;;;;;;13.47;11.87;;;20.00;98.20;;;;;;5056403;28;20238;-64
2023/09/16 02:56:14;;;;;;;13.43;11.60;;;20.00;98.20;;;;;;5104814;28;20268;-63
2023/09/16 02:58:41;;;;;;;13.97;10.97;;;20.00;98.10;;;;;;5075155;28;20202;-63
2023/09/16 03:01:10;;;;;;;12.30;10.20;;;20.00;98.20;;;;;;5077216;28;20215;-63
2023/09/16 03:03:41;;;;;;;20.40;16.80;;;19.90;98.10;;;;;;5066653;28;20207;-63
2023/09/16 03:06:08;;;;;;;16.60;12.07;;;19.90;98.10;;;;;;5079844;28;20656;-63
2023/09/16 03:08:35;;;;;;;17.03;14.83;;;19.90;98.20;;;;;;5071500;28;20610;-63
2023/09/16 03:11:04;;;;;;;18.37;13.57;;;19.90;98.30;;;;;;5072935;28;20206;-63
2023/09/16 03:13:33;;;;;;;20.30;12.37;;;19.90;98.30;;;;;;5073765;28;20220;-63
2023/09/16 03:16:20;;;;;;;14.93;13.43;;;19.90;98.30;;;;;;5070750;28;20639;-63
2023/09/16 03:18:52;;;;;;;18.67;12.93;;;19.90;98.30;;;;;;5059980;28;20574;-63
2023/09/16 03:21:23;;;;;;;11.57;9.90;;;19.90;98.30;;;;;;5064752;28;20212;-63
2023/09/16 03:23:54;;;;;;;19.17;12.50;;;19.80;98.20;;;;;;5106328;28;20216;-63
2023/09/16 03:26:22;;;;;;;16.77;12.67;;;19.80;98.20;;;;;;5083760;28;20200;-63
2023/09/16 03:28:53;;;;;;;12.70;11.40;;;19.80;98.20;;;;;;5115220;27;20205;-63
2023/09/16 03:31:30;;;;;;;12.17;10.53;;;19.80;98.10;;;;;;5085266;28;20283;-63
2023/09/16 03:34:11;;;;;;;18.87;13.37;;;19.80;98.10;;;;;;5079369;28;20549;-63
2023/09/16 03:36:40;;;;;;;20.17;11.70;;;19.80;98.20;;;;;;5081297;28;20633;-63
2023/09/16 03:39:07;;;;;;;15.10;11.80;;;19.80;98.30;;;;;;5078215;28;20194;-60
2023/09/16 03:41:35;;;;;;;98.83;10.23;;;19.80;98.30;;;;;;5070297;28;20197;-61
2023/09/16 03:44:02;;;;;;;55.80;7.93;;;19.80;98.40;;;;;;5079503;28;20204;-60
2023/09/16 03:46:31;;;;;;;7.40;6.60;;;19.80;98.40;;;;;;5081326;28;20210;-61
2023/09/16 03:49:02;;;;;;;15.97;6.60;;;19.80;98.40;;;;;;5112253;27;20220;-60
2023/09/16 03:51:29;;;;;;;6.47;5.87;;;19.70;98.40;;;;;;5114452;27;20209;-60
2023/09/16 03:53:56;;;;;;;8.33;7.57;;;19.70;98.40;;;;;;5076239;28;20225;-60
2023/09/16 03:56:23;;;;;;;9.20;8.17;;;19.70;98.40;;;;;;5065230;28;20208;-60
2023/09/16 03:58:50;;;;;;;10.23;7.83;;;19.70;98.40;;;;;;5081639;28;20193;-60
2023/09/16 04:01:22;;;;;;;10.27;9.17;;;19.70;98.40;;;;;;5073586;28;20641;-60
2023/09/16 04:03:49;;;;;;;10.57;8.57;;;19.70;98.30;;;;;;5066479;28;20215;-60
2023/09/16 04:06:17;;;;;;;9.10;8.20;;;19.70;98.30;;;;;;5079829;28;20217;-60
2023/09/16 04:08:44;;;;;;;10.60;8.93;;;19.70;98.30;;;;;;5116158;27;20236;-60
2023/09/16 04:11:11;;;;;;;14.97;10.10;;;19.60;98.40;;;;;;5081569;28;20204;-61
2023/09/16 04:13:38;;;;;;;13.90;12.40;;;19.60;98.40;;;;;;5065286;28;20228;-60
2023/09/16 04:16:05;;;;;;;14.37;12.40;;;19.60;98.50;;;;;;5075959;28;20206;-60
2023/09/16 04:18:34;;;;;;;11.20;9.70;;;19.60;98.50;;;;;;5079026;28;20533;-60
2023/09/16 04:21:02;;;;;;;13.33;11.27;;;19.60;98.50;;;;;;5075639;28;20251;-61
2023/09/16 04:23:30;;;;;;;13.43;11.50;;;19.60;98.50;;;;;;5084283;28;20201;-61
2023/09/16 04:26:00;;;;;;;13.30;11.37;;;19.60;98.60;;;;;;5069834;28;20601;-60
2023/09/16 04:28:29;;;;;;;16.60;14.77;;;19.60;98.60;;;;;;5076596;28;20208;-61
2023/09/16 04:30:58;;;;;;;22.30;18.30;;;19.60;98.60;;;;;;5077396;28;20294;-60
2023/09/16 04:33:29;;;;;;;21.87;17.30;;;19.60;98.60;;;;;;5065694;28;20240;-60
2023/09/16 04:35:56;;;;;;;24.40;18.37;;;19.60;98.60;;;;;;5076622;28;20201;-60
2023/09/16 04:38:25;;;;;;;26.37;18.87;;;19.60;98.70;;;;;;5080171;28;20231;-60
2023/09/16 04:40:55;;;;;;;27.80;20.07;;;19.60;98.70;;;;;;5078930;28;20254;-60
2023/09/16 04:43:25;;;;;;;26.77;19.93;;;19.60;98.70;;;;;;5060732;28;20216;-60
2023/09/16 04:45:54;;;;;;;24.40;19.20;;;19.60;98.70;;;;;;5065011;28;20283;-60
2023/09/16 04:48:50;;;;;;;25.90;19.43;;;19.60;98.80;;;;;;5068126;28;20236;-60
2023/09/16 04:51:18;;;;;;;26.33;20.13;;;19.60;98.80;;;;;;5078943;28;20614;-63
2023/09/16 04:53:49;;;;;;;25.23;18.40;;;19.60;98.70;;;;;;5081272;28;20224;-63
2023/09/16 04:56:20;;;;;;;31.83;21.30;;;19.60;98.70;;;;;;5079268;28;20255;-62
2023/09/16 04:58:49;;;;;;;27.23;19.63;;;19.60;98.70;;;;;;5082431;28;20204;-63
2023/09/16 05:01:18;;;;;;;28.50;19.03;;;19.60;98.80;;;;;;5079231;28;20216;-63
2023/09/16 05:03:45;;;;;;;25.33;20.40;;;19.60;98.80;;;;;;5081194;28;20192;-62
2023/09/16 05:06:13;;;;;;;25.37;21.60;;;19.70;98.80;;;;;;5059405;28;20198;-63
2023/09/16 05:08:40;;;;;;;29.13;20.93;;;19.70;98.80;;;;;;5073518;28;20219;-63
2023/09/16 05:11:07;;;;;;;23.37;19.73;;;19.70;98.90;;;;;;5077878;28;20221;-60
2023/09/16 05:13:57;;;;;;;26.00;18.53;;;19.70;98.90;;;;;;5063942;28;20225;-61
2023/09/16 05:16:24;;;;;;;22.43;18.97;;;19.70;99.00;;;;;;5086766;28;20214;-61
2023/09/16 05:18:53;;;;;;;22.10;17.17;;;19.70;99.00;;;;;;5108996;27;20205;-61
2023/09/16 05:21:21;;;;;;;17.33;15.53;;;19.70;99.10;;;;;;5081691;28;20248;-61
2023/09/16 05:23:51;;;;;;;18.63;15.20;;;19.70;99.10;;;;;;5093236;28;20265;-61
2023/09/16 05:26:19;;;;;;;26.23;17.27;;;19.70;99.00;;;;;;5072111;28;20242;-61
2023/09/16 05:28:46;;;;;;;23.83;18.63;;;19.70;99.30;;;;;;5074787;28;20217;-61
2023/09/16 05:31:13;;;;;;;16.20;12.33;;;19.70;99.00;;;;;;5076902;28;20316;-61
2023/09/16 05:33:42;;;;;;;14.27;11.23;;;19.80;99.10;;;;;;5060187;28;20221;-61
2023/09/16 05:36:09;;;;;;;14.50;10.83;;;19.90;99.10;;;;;;5075511;28;20275;-61
2023/09/16 05:38:36;;;;;;;14.77;12.60;;;19.90;99.10;;;;;;5080906;28;20545;-60
2023/09/16 05:41:03;;;;;;;21.70;16.30;;;19.90;99.40;;;;;;5084579;28;20669;-61
2023/09/16 05:43:30;;;;;;;22.30;17.17;;;20.00;99.10;;;;;;5082752;28;20641;-61
2023/09/16 05:45:58;;;;;;;14.37;11.80;;;20.10;99.10;;;;;;5077629;28;20644;-61
2023/09/16 05:48:26;;;;;;;17.00;13.67;;;20.20;99.00;;;;;;5062781;28;20292;-61
2023/09/16 05:51:02;;;;;;;18.50;15.70;;;20.30;99.00;;;;;;5082518;28;20265;-61
2023/09/16 05:53:32;;;;;;;18.93;15.83;;;20.50;99.20;;;;;;5067040;28;20214;-60
2023/09/16 05:56:04;;;;;;;23.63;19.83;;;20.70;99.00;;;;;;5074684;28;20305;-61
2023/09/16 05:58:33;;;;;;;24.40;19.80;;;21.00;98.70;;;;;;5078918;28;20201;-61
2023/09/16 06:01:01;;;;;;;24.37;20.20;;;21.40;98.20;;;;;;5076232;28;20198;-61
2023/09/16 06:03:29;;;;;;;23.27;19.77;;;21.70;97.50;;;;;;5076058;28;20210;-61
2023/09/16 06:05:58;;;;;;;30.23;21.00;;;22.00;97.00;;;;;;5080823;28;20201;-61
2023/09/16 06:08:25;;;;;;;25.27;20.70;;;22.30;96.30;;;;;;5069543;28;20264;-61
2023/09/16 06:10:55;;;;;;;27.90;21.23;;;22.30;95.90;;;;;;5113656;27;20202;-61
2023/09/16 06:13:23;;;;;;;23.97;19.77;;;22.40;95.90;;;;;;5076205;28;20351;-61
2023/09/16 06:15:52;;;;;;;27.07;20.77;;;22.40;96.00;;;;;;5076754;28;20212;-61
2023/09/16 06:18:22;;;;;;;32.23;23.03;;;22.40;96.10;;;;;;5076216;28;20229;-61
2023/09/16 06:20:49;;;;;;;27.90;22.70;;;22.50;96.00;;;;;;5077291;28;20229;-61
2023/09/16 06:23:16;;;;;;;31.60;25.03;;;22.60;96.00;;;;;;5077912;28;20213;-61
2023/09/16 06:25:44;;;;;;;27.33;22.97;;;22.60;95.90;;;;;;5081368;28;20293;-61
2023/09/16 06:28:11;;;;;;;34.27;25.70;;;22.60;95.70;;;;;;5079870;28;20588;-61
2023/09/16 06:30:37;;;;;;;31.03;25.33;;;22.60;95.80;;;;;;5076952;28;20212;-61
2023/09/16 06:33:05;;;;;;;33.97;24.53;;;22.60;96.00;;;;;;5081976;28;20226;-61
2023/09/16 06:35:32;;;;;;;34.47;25.33;;;22.60;96.10;;;;;;5077474;28;20198;-61
2023/09/16 06:37:59;;;;;;;32.40;25.03;;;22.50;96.00;;;;;;5072118;28;20663;-61
2023/09/16 06:40:27;;;;;;;34.60;25.70;;;22.50;96.20;;;;;;5081400;28;20201;-61
2023/09/16 06:42:54;;;;;;;28.97;24.27;;;22.50;96.40;;;;;;5079292;28;20194;-61
2023/09/16 06:45:21;;;;;;;30.93;24.20;;;22.50;96.60;;;;;;5080099;28;20201;-61
2023/09/16 06:47:50;;;;;;;30.10;23.97;;;22.60;96.70;;;;;;5075184;28;20283;-61
2023/09/16 06:50:17;;;;;;;31.17;25.47;;;22.60;96.80;;;;;;5073208;28;20655;-61
2023/09/16 06:52:44;;;;;;;30.93;24.70;;;22.60;96.60;;;;;;5075882;28;20210;-61
2023/09/16 06:55:12;;;;;;;31.93;25.37;;;22.70;96.40;;;;;;5089247;28;20216;-61
2023/09/16 06:57:39;;;;;;;29.97;24.27;;;22.70;96.40;;;;;;5074208;28;20194;-60
2023/09/16 07:00:23;;;;;;;28.03;22.23;;;22.80;96.50;;;;;;5070581;28;20186;-61
2023/09/16 07:02:52;;;;;;;25.80;21.20;;;22.80;96.40;;;;;;5088106;28;20247;-60
2023/09/16 07:05:19;;;;;;;23.93;21.23;;;22.90;96.50;;;;;;5077346;28;20201;-60
2023/09/16 07:07:46;;;;;;;25.13;21.90;;;22.90;96.30;;;;;;5079561;28;20217;-61
2023/09/16 07:10:13;;;;;;;22.33;19.93;;;22.90;96.30;;;;;;5077236;28;20217;-61
2023/09/16 07:12:40;;;;;;;23.63;20.83;;;22.90;96.30;;;;;;5077647;28;20201;-61
2023/09/16 07:15:09;;;;;;;22.77;20.03;;;22.90;96.30;;;;;;5083271;28;20526;-61
2023/09/16 07:17:36;;;;;;;22.73;19.50;;;22.90;96.30;;;;;;5078899;28;20191;-61
2023/09/16 07:20:04;;;;;;;26.87;21.10;;;22.90;96.40;;;;;;5075598;28;20202;-61
2023/09/16 07:22:31;;;;;;;27.20;21.60;;;22.90;96.40;;;;;;5069017;28;20208;-61
2023/09/16 07:24:58;;;;;;;27.37;20.30;;;22.90;96.30;;;;;;5083847;28;20206;-61
2023/09/16 07:27:25;;;;;;;24.33;20.57;;;22.80;96.20;;;;;;5076894;28;20210;-61
2023/09/16 07:29:52;;;;;;;26.97;20.10;;;22.80;96.30;;;;;;5075027;28;20198;-61
2023/09/16 07:32:19;;;;;;;24.53;19.33;;;22.80;96.40;;;;;;5077148;28;20237;-61
2023/09/16 07:34:46;;;;;;;23.70;20.23;;;22.80;96.60;;;;;;5077899;28;20209;-61
2023/09/16 07:37:14;;;;;;;22.33;19.97;;;22.80;96.70;;;;;;5077629;28;20657;-61
2023/09/16 07:39:41;;;;;;;24.63;20.67;;;22.70;96.70;;;;;;5078727;28;20261;-61
2023/09/16 07:42:10;;;;;;;24.40;21.23;;;22.70;96.80;;;;;;5073179;28;20206;-61
2023/09/16 07:44:37;;;;;;;28.00;21.20;;;22.70;96.90;;;;;;5076516;28;20626;-61
2023/09/16 07:47:04;;;;;;;23.27;20.70;;;22.70;96.90;;;;;;5082816;28;20233;-61
2023/09/16 07:49:31;;;;;;;26.63;21.90;;;22.70;97.00;;;;;;5071411;28;20197;-61
2023/09/16 07:51:58;;;;;;;25.83;21.23;;;22.70;97.00;;;;;;5075471;28;20200;-61
2023/09/16 07:54:25;;;;;;;27.77;23.30;;;22.60;97.00;;;;;;5077119;28;20216;-61
2023/09/16 07:56:52;;;;;;;25.40;21.70;;;22.60;97.10;;;;;;5079379;28;20206;-61
2023/09/16 07:59:20;;;;;;;26.63;20.57;;;22.60;97.10;;;;;;5079153;28;20198;-59
2023/09/16 08:01:47;;;;;;;25.60;22.40;;;22.60;97.10;;;;;;5075319;28;20204;-60
2023/09/16 08:04:14;;;;;;;26.33;23.50;;;22.60;97.50;;;;;;5074252;28;20200;-61
2023/09/16 08:06:42;;;;;;;26.63;22.50;;;22.60;97.30;;;;;;5078663;28;20718;-61
2023/09/16 08:09:09;;;;;;;24.63;20.53;;;22.60;97.30;;;;;;5073282;28;20246;-61
2023/09/16 08:11:36;;;;;;;25.53;21.47;;;22.60;97.40;;;;;;5079854;28;20248;-61
2023/09/16 08:14:03;;;;;;;26.17;22.30;;;22.60;97.40;;;;;;5076054;28;20617;-61
2023/09/16 08:16:30;;;;;;;27.80;22.53;;;22.60;97.50;;;;;;5079965;28;20254;-61
2023/09/16 08:18:57;;;;;;;25.93;22.00;;;22.60;97.60;;;;;;5081221;28;20607;-61
2023/09/16 08:21:24;;;;;;;30.83;22.07;;;22.60;97.70;;;;;;5081148;28;20214;-61
2023/09/16 08:23:51;;;;;;;26.33;21.70;;;22.50;97.80;;;;;;5075889;28;20212;-61
2023/09/16 08:26:18;;;;;;;27.63;23.73;;;22.60;97.90;;;;;;5082323;28;20541;-61
2023/09/16 08:28:45;;;;;;;28.07;20.53;;;22.50;97.90;;;;;;5082671;28;20287;-61
2023/09/16 08:31:13;;;;;;;29.27;22.33;;;22.50;98.10;;;;;;5076236;28;20246;-61
2023/09/16 08:33:40;;;;;;;31.17;22.67;;;22.50;98.20;;;;;;5074543;28;20705;-61
2023/09/16 08:36:07;;;;;;;29.50;22.03;;;22.50;98.30;;;;;;5079116;28;20622;-61
2023/09/16 08:38:34;;;;;;;29.80;23.93;;;22.40;98.30;;;;;;5082990;28;20197;-62
2023/09/16 08:41:21;;;;;;;28.23;22.03;;;22.40;98.50;;;;;;5080739;28;20587;-61
2023/09/16 08:43:52;;;;;;;28.73;23.23;;;22.40;98.70;;;;;;5071271;28;20214;-61
2023/09/16 08:46:22;;;;;;;34.10;23.87;;;22.40;98.90;;;;;;5081202;28;20642;-61
2023/09/16 08:48:54;;;;;;;29.37;23.43;;;22.30;98.90;;;;;;5075276;28;20201;-61
2023/09/16 08:51:23;;;;;;;29.70;23.17;;;22.30;99.00;;;;;;5075890;28;20225;-61
2023/09/16 08:53:54;;;;;;;32.20;23.07;;;22.30;99.10;;;;;;5079081;28;20221;-61
2023/09/16 08:56:21;;;;;;;33.63;23.73;;;22.30;99.20;;;;;;5079313;28;20204;-61
2023/09/16 08:58:48;;;;;;;30.10;23.43;;;22.30;99.40;;;;;;5079460;28;20194;-61
2023/09/16 09:01:19;;;;;;;33.53;24.17;;;22.40;99.50;;;;;;5076047;28;20632;-61
2023/09/16 09:03:47;;;;;;;35.03;25.23;;;22.40;99.60;;;;;;5082647;28;20193;-61
2023/09/16 09:06:16;;;;;;;32.57;25.43;;;22.30;99.80;;;;;;5074859;28;20570;-61
2023/09/16 09:09:00;;;;;;;33.53;25.57;;;22.40;99.90;;;;;;5080263;28;20190;-61
2023/09/16 09:11:30;;;;;;;31.67;26.83;;;22.40;99.90;;;;;;5078935;28;20220;-61
2023/09/16 09:13:59;;;;;;;32.87;25.80;;;22.50;99.90;;;;;;5072522;28;20560;-61
2023/09/16 09:16:29;;;;;;;35.93;26.40;;;22.50;99.90;;;;;;5064354;28;20209;-61
2023/09/16 09:18:57;;;;;;;31.43;26.07;;;22.50;99.90;;;;;;5072004;28;20534;-61
2023/09/16 09:21:25;;;;;;;33.07;24.10;;;22.60;99.90;;;;;;5080874;28;20608;-61
2023/09/16 09:23:52;;;;;;;27.23;23.80;;;22.60;99.90;;;;;;5074081;28;20229;-60
2023/09/16 09:26:19;;;;;;;26.90;22.53;;;22.70;99.90;;;;;;5079768;28;20543;-60
2023/09/16 09:28:49;;;;;;;29.27;22.37;;;22.70;99.90;;;;;;5076644;28;20194;-60
2023/09/16 09:31:16;;;;;;;29.47;22.33;;;22.70;99.90;;;;;;5078128;28;20259;-61
2023/09/16 09:33:44;;;;;;;32.63;23.80;;;22.70;99.90;;;;;;5078898;28;20247;-61
2023/09/16 09:36:16;;;;;;;34.37;26.00;;;22.70;99.90;;;;;;5064852;28;20197;-61
2023/09/16 09:38:47;;;;;;;34.60;26.10;;;22.70;99.90;;;;;;5073565;28;20271;-61
2023/09/16 09:41:15;;;;;;;32.60;26.17;;;22.70;99.90;;;;;;5075803;28;20198;-61
2023/09/16 09:43:42;;;;;;;36.63;27.40;;;22.70;99.90;;;;;;5078069;28;20202;-61
2023/09/16 09:46:10;;;;;;;37.43;28.60;;;22.60;99.90;;;;;;5076241;28;20284;-62
2023/09/16 09:48:39;;;;;;;32.70;25.93;;;22.70;99.90;;;;;;5079214;28;20586;-60
2023/09/16 09:51:09;;;;;;;32.97;26.20;;;22.60;99.90;;;;;;5077514;28;20202;-61
2023/09/16 09:53:37;;;;;;;31.40;27.73;;;22.60;99.90;;;;;;5077163;28;20201;-61
2023/09/16 09:56:04;;;;;;;42.13;27.83;;;22.60;99.90;;;;;;5070444;28;20225;-61
2023/09/16 09:58:31;;;;;;;37.00;28.17;;;22.60;99.90;;;;;;5069698;28;20205;-61
2023/09/16 10:00:59;;;;;;;36.57;28.33;;;22.70;99.90;;;;;;5072196;28;20217;-61
2023/09/16 10:03:27;;;;;;;39.63;28.93;;;22.70;99.90;;;;;;5075741;28;20201;-60
2023/09/16 10:05:58;;;;;;;36.93;28.50;;;22.60;99.90;;;;;;5071690;28;20574;-61
2023/09/16 10:08:27;;;;;;;38.63;29.77;;;22.60;99.90;;;;;;5079034;28;20552;-61
2023/09/16 10:10:54;;;;;;;37.00;28.60;;;22.60;99.90;;;;;;5081565;28;20214;-61
2023/09/16 10:13:22;;;;;;;40.27;29.57;;;22.60;99.90;;;;;;5073344;28;20233;-61
2023/09/16 10:15:49;;;;;;;42.97;29.27;;;22.60;99.90;;;;;;5095146;28;20614;-61
2023/09/16 10:18:18;;;;;;;39.57;30.40;;;22.60;99.90;;;;;;5065538;28;20267;-61
2023/09/16 10:20:46;;;;;;;35.83;29.13;;;22.60;99.90;;;;;;5078529;28;20189;-60
2023/09/16 10:23:14;;;;;;;38.27;29.43;;;22.60;99.90;;;;;;5077221;28;20264;-61
2023/09/16 10:25:41;;;;;;;41.83;30.30;;;22.60;99.90;;;;;;5074422;28;20201;-60
2023/09/16 10:28:09;;;;;;;40.47;30.93;;;22.60;99.90;;;;;;5069703;28;20208;-60
2023/09/16 10:30:37;;;;;;;40.93;30.73;;;22.60;99.90;;;;;;5077656;28;20209;-60
2023/09/16 10:33:06;;;;;;;42.17;31.03;;;22.60;99.90;;;;;;5077993;28;20283;-61
2023/09/16 10:35:37;;;;;;;43.57;31.50;;;22.70;99.90;;;;;;5078516;28;20650;-61
2023/09/16 10:38:06;;;;;;;43.43;30.83;;;22.70;99.90;;;;;;5092153;28;20198;-61
2023/09/16 10:40:33;;;;;;;43.97;31.50;;;22.70;99.90;;;;;;5073082;28;20198;-61
2023/09/16 10:43:02;;;;;;;42.77;29.27;;;22.80;99.90;;;;;;5074776;28;20212;-61
2023/09/16 10:45:31;;;;;;;41.30;30.47;;;22.80;99.90;;;;;;5073020;28;20259;-60
2023/09/16 10:48:02;;;;;;;38.37;28.97;;;22.90;99.90;;;;;;5072647;28;20236;-61
2023/09/16 10:50:36;;;;;;;37.07;29.23;;;22.90;99.90;;;;;;5074540;28;20535;-60
2023/09/16 10:53:26;;;;;;;38.67;29.93;;;23.00;99.90;;;;;;5080893;28;20553;-60
2023/09/16 10:56:03;;;;;;;38.37;28.37;;;23.10;99.90;;;;;;5078306;28;20213;-61
2023/09/16 10:58:44;;;;;;;35.60;27.87;;;23.20;99.90;;;;;;5076415;28;20200;-61
2023/09/16 11:01:22;;;;;;;33.73;27.57;;;23.30;99.90;;;;;;5067926;28;20289;-61
2023/09/16 11:03:55;;;;;;;38.37;28.03;;;23.30;99.90;;;;;;5078845;28;20210;-60
2023/09/16 11:06:22;;;;;;;30.53;24.27;;;23.40;99.90;;;;;;5076022;28;20209;-60
2023/09/16 11:08:50;;;;;;;30.80;25.53;;;23.50;99.90;;;;;;5070036;28;20263;-60
2023/09/16 11:11:18;;;;;;;29.33;24.77;;;23.50;99.90;;;;;;5073958;28;20198;-61
2023/09/16 11:13:45;;;;;;;27.97;24.70;;;23.60;99.90;;;;;;5072727;28;20666;-60
2023/09/16 11:16:12;;;;;;;28.87;22.40;;;23.70;99.90;;;;;;5074671;28;20248;-60
2023/09/16 11:18:42;;;;;;;27.17;21.07;;;23.70;99.90;;;;;;5076719;28;20236;-61
2023/09/16 11:21:11;;;;;;;24.10;21.53;;;23.80;99.90;;;;;;5070760;28;20201;-60
2023/09/16 11:23:38;;;;;;;23.10;20.43;;;23.90;99.90;;;;;;5074101;28;20760;-60
2023/09/16 11:26:06;;;;;;;20.20;18.13;;;23.90;99.90;;;;;;5077636;28;20314;-60
2023/09/16 11:28:35;;;;;;;23.57;18.67;;;24.00;99.90;;;;;;5070782;28;20277;-60
2023/09/16 11:31:02;;;;;;;22.10;19.77;;;24.10;99.90;;;;;;5075664;28;20292;-60
2023/09/16 11:33:35;;;;;;;17.87;16.03;;;24.20;99.90;;;;;;5072738;28;20215;-60
2023/09/16 11:36:22;;;;;;;19.70;17.23;;;24.20;99.50;;;;;;5073246;28;20210;-60
2023/09/16 11:39:08;;;;;;;19.17;16.30;;;24.30;99.10;;;;;;5073984;28;20198;-60
2023/09/16 11:41:36;;;;;;;19.80;17.27;;;24.30;99.10;;;;;;5076120;28;20211;-60
2023/09/16 11:44:04;;;;;;;21.73;15.63;;;24.40;99.10;;;;;;5084507;28;20210;-60
2023/09/16 11:46:32;;;;;;;17.63;15.40;;;24.40;98.70;;;;;;5078442;28;20193;-60
2023/09/16 11:49:03;;;;;;;18.23;14.90;;;24.40;98.50;;;;;;5081896;28;20205;-60
2023/09/16 11:51:32;;;;;;;20.53;15.33;;;24.40;98.30;;;;;;5069780;28;20643;-60
2023/09/16 11:54:00;;;;;;;18.53;14.93;;;24.40;98.20;;;;;;5085665;28;20205;-60
2023/09/16 11:56:29;;;;;;;17.27;14.50;;;24.50;98.20;;;;;;5076572;28;20224;-60
2023/09/16 11:58:58;;;;;;;21.20;17.10;;;24.50;98.00;;;;;;5074496;28;20297;-60
2023/09/16 12:01:29;;;;;;;18.93;16.03;;;24.50;98.00;;;;;;5078363;28;20193;-60
2023/09/16 12:03:57;;;;;;;18.20;16.37;;;24.60;97.80;;;;;;5083878;28;20202;-60
2023/09/16 12:06:26;;;;;;;18.73;16.67;;;24.60;97.80;;;;;;5083259;28;20202;-60
2023/09/16 12:08:55;;;;;;;17.97;16.33;;;24.60;97.70;;;;;;5076425;28;20229;-60
2023/09/16 12:11:24;;;;;;;20.23;17.50;;;24.70;97.40;;;;;;5075343;28;20215;-60
2023/09/16 12:13:53;;;;;;;18.63;16.63;;;24.70;97.40;;;;;;5074058;28;20213;-60
2023/09/16 12:16:20;;;;;;;22.80;17.80;;;24.70;97.40;;;;;;5083541;28;20297;-60
2023/09/16 12:18:47;;;;;;;20.33;17.33;;;24.80;97.40;;;;;;5073446;28;20642;-60
2023/09/16 12:21:15;;;;;;;19.50;17.13;;;24.90;97.10;;;;;;5081993;28;20202;-60
2023/09/16 12:23:43;;;;;;;18.97;17.00;;;25.00;96.80;;;;;;5078877;28;20322;-60
2023/09/16 12:26:11;;;;;;;18.87;16.53;;;25.20;97.10;;;;;;5081297;28;20213;-60
2023/09/16 12:28:39;;;;;;;17.57;15.77;;;25.40;97.10;;;;;;5078092;28;20224;-60
2023/09/16 12:31:09;;;;;;;17.27;14.70;;;25.60;96.40;;;;;;5074269;28;20286;-61
2023/09/16 12:33:48;;;;;;;16.47;14.03;;;25.80;95.90;;;;;;5069045;28;20208;-60
2023/09/16 12:36:17;;;;;;;17.73;15.60;;;26.00;95.00;;;;;;5079459;28;20241;-60
2023/09/16 12:38:46;;;;;;;15.47;13.87;;;26.20;94.40;;;;;;5072847;28;20201;-61